createdAt,value
2024-04-03T00:00:28.849Z,708.00
2024-04-03T00:01:28.834Z,701.00
2024-04-03T00:02:28.849Z,707.00
2024-04-03T00:03:28.923Z,704.00
2024-04-03T00:04:28.992Z,701.00
2024-04-03T00:05:29.046Z,702.00
2024-04-03T00:06:29.089Z,694.00
2024-04-03T00:07:29.162Z,699.00
2024-04-03T00:08:29.206Z,697.00
2024-04-03T00:09:29.218Z,696.00
2024-04-03T00:10:29.255Z,695.00
2024-04-03T00:11:29.288Z,697.00
2024-04-03T00:12:29.349Z,685.00
2024-04-03T00:13:29.386Z,705.00
2024-04-03T00:14:29.456Z,692.00
2024-04-03T00:15:29.495Z,695.00
2024-04-03T00:16:29.557Z,683.00
2024-04-03T00:17:29.880Z,693.00
2024-04-03T00:18:29.676Z,693.00
2024-04-03T00:19:29.728Z,688.00
2024-04-03T00:20:29.774Z,696.00
2024-04-03T00:21:29.809Z,694.00
2024-04-03T00:22:29.852Z,688.00
2024-04-03T00:23:29.902Z,683.00
2024-04-03T00:24:29.967Z,680.00
2024-04-03T00:25:30.026Z,683.00
2024-04-03T00:26:30.100Z,692.00
2024-04-03T00:27:30.117Z,683.00
2024-04-03T00:28:30.182Z,698.00
2024-04-03T00:29:30.184Z,690.00
2024-04-03T00:30:30.288Z,689.00
2024-04-03T00:31:30.251Z,680.00
2024-04-03T00:32:30.354Z,675.00
2024-04-03T00:33:30.317Z,683.00
2024-04-03T00:34:30.351Z,688.00
2024-04-03T00:35:30.365Z,681.00
2024-04-03T00:36:30.387Z,682.00
2024-04-03T00:37:30.456Z,668.00
2024-04-03T00:38:30.431Z,670.00
2024-04-03T00:39:30.442Z,678.00
2024-04-03T00:40:30.458Z,676.00
2024-04-03T00:41:30.472Z,679.00
2024-04-03T00:42:30.493Z,665.00
2024-04-03T00:43:30.536Z,679.00
2024-04-03T00:44:30.543Z,676.00
2024-04-03T00:45:30.551Z,677.00
2024-04-03T00:46:30.564Z,674.00
2024-04-03T00:47:30.642Z,667.00
2024-04-03T00:48:30.605Z,682.00
2024-04-03T00:49:30.627Z,668.00
2024-04-03T00:50:30.656Z,665.00
2024-04-03T00:51:30.655Z,681.00
2024-04-03T00:52:30.693Z,674.00
2024-04-03T00:53:30.749Z,664.00
2024-04-03T00:54:30.762Z,664.00
2024-04-03T00:55:30.764Z,667.00
2024-04-03T00:56:30.771Z,675.00
2024-04-03T00:57:30.793Z,665.00
2024-04-03T00:58:31.311Z,669.00
2024-04-03T00:59:30.856Z,664.00
2024-04-03T01:00:30.840Z,663.00
2024-04-03T01:01:30.843Z,665.00
2024-04-03T01:02:30.867Z,664.00
2024-04-03T01:03:30.882Z,664.00
2024-04-03T01:04:30.905Z,667.00
2024-04-03T01:05:30.936Z,663.00
2024-04-03T01:06:30.944Z,661.00
2024-04-03T01:07:30.954Z,662.00
2024-04-03T01:08:30.974Z,668.00
2024-04-03T01:09:30.988Z,662.00
2024-04-03T01:10:30.987Z,663.00
2024-04-03T01:11:31.034Z,661.00
2024-04-03T01:12:31.046Z,665.00
2024-04-03T01:13:31.069Z,657.00
2024-04-03T01:14:31.056Z,660.00
2024-04-03T01:15:31.107Z,662.00
2024-04-03T01:16:31.123Z,662.00
2024-04-03T01:17:31.157Z,662.00
2024-04-03T01:18:31.169Z,658.00
2024-04-03T01:19:31.184Z,663.00
2024-04-03T01:20:31.196Z,662.00
2024-04-03T01:21:31.798Z,659.00
2024-04-03T01:22:31.238Z,663.00
2024-04-03T01:23:31.252Z,662.00
2024-04-03T01:24:31.271Z,664.00
2024-04-03T01:25:47.189Z,661.00
2024-04-03T01:26:32.299Z,661.00
2024-04-03T01:27:31.286Z,662.00
2024-04-03T01:28:31.310Z,661.00
2024-04-03T01:29:31.316Z,660.00
2024-04-03T01:30:31.287Z,660.00
2024-04-03T01:31:31.326Z,661.00
2024-04-03T01:32:31.329Z,663.00
2024-04-03T01:33:31.300Z,660.00
2024-04-03T01:34:31.307Z,655.00
2024-04-03T01:35:31.301Z,658.00
2024-04-03T01:36:31.296Z,657.00
2024-04-03T01:37:31.302Z,661.00
2024-04-03T01:38:31.321Z,657.00
2024-04-03T01:39:31.298Z,658.00
2024-04-03T01:40:31.326Z,659.00
2024-04-03T01:41:31.307Z,657.00
2024-04-03T01:42:31.317Z,653.00
2024-04-03T01:43:31.339Z,655.00
2024-04-03T01:44:31.335Z,656.00
2024-04-03T01:45:31.367Z,653.00
2024-04-03T01:46:31.360Z,652.00
2024-04-03T01:47:31.424Z,654.00
2024-04-03T01:48:31.417Z,656.00
2024-04-03T01:49:31.397Z,655.00
2024-04-03T01:50:31.439Z,655.00
2024-04-03T01:51:31.422Z,652.00
2024-04-03T01:52:31.451Z,652.00
2024-04-03T01:53:31.466Z,655.00
2024-04-03T01:54:31.524Z,650.00
2024-04-03T01:55:31.516Z,652.00
2024-04-03T01:56:31.569Z,653.00
2024-04-03T01:57:31.569Z,654.00
2024-04-03T01:58:31.580Z,652.00
2024-04-03T01:59:31.588Z,652.00
2024-04-03T02:00:31.600Z,652.00
2024-04-03T02:01:31.629Z,650.00
2024-04-03T02:02:31.673Z,654.00
2024-04-03T02:03:31.677Z,654.00
2024-04-03T02:04:31.683Z,650.00
2024-04-03T02:05:31.712Z,649.00
2024-04-03T02:06:31.722Z,656.00
2024-04-03T02:07:31.756Z,650.00
2024-04-03T02:08:31.787Z,647.00
2024-04-03T02:09:31.793Z,649.00
2024-04-03T02:10:31.816Z,650.00
2024-04-03T02:11:31.835Z,647.00
2024-04-03T02:12:31.847Z,647.00
2024-04-03T02:13:31.886Z,647.00
2024-04-03T02:14:31.922Z,647.00
2024-04-03T02:15:31.923Z,650.00
2024-04-03T02:16:31.956Z,646.00
2024-04-03T02:17:32.030Z,647.00
2024-04-03T02:18:31.972Z,651.00
2024-04-03T02:19:31.990Z,648.00
2024-04-03T02:20:31.993Z,643.00
2024-04-03T02:21:32.005Z,644.00
2024-04-03T02:22:32.017Z,647.00
2024-04-03T02:23:36.497Z,651.00
2024-04-03T02:24:33.025Z,651.00
2024-04-03T02:25:32.019Z,649.00
2024-04-03T02:26:32.024Z,651.00
2024-04-03T02:27:32.022Z,642.00
2024-04-03T02:28:32.045Z,647.00
2024-04-03T02:29:32.047Z,648.00
2024-04-03T02:30:32.022Z,646.00
2024-04-03T02:31:32.030Z,647.00
2024-04-03T02:32:32.022Z,648.00
2024-04-03T02:33:32.039Z,650.00
2024-04-03T02:34:32.088Z,645.00
2024-04-03T02:35:32.040Z,643.00
2024-04-03T02:36:32.028Z,645.00
2024-04-03T02:37:32.043Z,647.00
2024-04-03T02:38:32.046Z,644.00
2024-04-03T02:39:32.037Z,645.00
2024-04-03T02:40:32.036Z,645.00
2024-04-03T02:41:32.030Z,647.00
2024-04-03T02:42:32.022Z,644.00
2024-04-03T02:43:32.033Z,645.00
2024-04-03T02:44:32.026Z,641.00
2024-04-03T02:45:32.057Z,642.00
2024-04-03T02:46:32.044Z,642.00
2024-04-03T02:47:32.043Z,645.00
2024-04-03T02:48:32.054Z,643.00
2024-04-03T02:49:32.035Z,646.00
2024-04-03T02:50:32.034Z,643.00
2024-04-03T02:51:32.041Z,639.00
2024-04-03T02:52:32.060Z,638.00
2024-04-03T02:53:32.075Z,642.00
2024-04-03T02:54:32.082Z,639.00
2024-04-03T02:55:32.115Z,640.00
2024-04-03T02:56:32.141Z,640.00
2024-04-03T02:57:32.191Z,641.00
2024-04-03T02:58:32.226Z,639.00
2024-04-03T02:59:32.188Z,644.00
2024-04-03T03:00:32.216Z,638.00
2024-04-03T03:01:32.207Z,642.00
2024-04-03T03:02:32.227Z,640.00
2024-04-03T03:03:32.217Z,641.00
2024-04-03T03:04:32.223Z,640.00
2024-04-03T03:05:32.237Z,636.00
2024-04-03T03:06:32.230Z,641.00
2024-04-03T03:07:32.247Z,636.00
2024-04-03T03:08:32.308Z,634.00
2024-04-03T03:09:34.303Z,637.00
2024-04-03T03:10:32.273Z,639.00
2024-04-03T03:11:32.311Z,639.00
2024-04-03T03:12:32.338Z,634.00
2024-04-03T03:13:32.308Z,638.00
2024-04-03T03:14:32.323Z,634.00
2024-04-03T03:15:32.347Z,641.00
2024-04-03T03:16:32.350Z,635.00
2024-04-03T03:17:32.345Z,637.00
2024-04-03T03:18:32.356Z,634.00
2024-04-03T03:19:32.366Z,636.00
2024-04-03T03:20:32.385Z,631.00
2024-04-03T03:21:32.386Z,637.00
2024-04-03T03:22:32.384Z,636.00
2024-04-03T03:23:32.390Z,639.00
2024-04-03T03:24:32.410Z,633.00
2024-04-03T03:25:32.418Z,637.00
2024-04-03T03:26:32.413Z,628.00
2024-04-03T03:27:32.456Z,635.00
2024-04-03T03:28:32.441Z,632.00
2024-04-03T03:29:32.458Z,635.00
2024-04-03T03:30:32.512Z,635.00
2024-04-03T03:31:32.466Z,636.00
2024-04-03T03:32:32.511Z,635.00
2024-04-03T03:33:32.515Z,626.00
2024-04-03T03:34:32.507Z,635.00
2024-04-03T03:35:32.482Z,633.00
2024-04-03T03:36:32.489Z,633.00
2024-04-03T03:37:32.500Z,633.00
2024-04-03T03:38:32.846Z,632.00
2024-04-03T03:39:32.524Z,630.00
2024-04-03T03:40:32.545Z,633.00
2024-04-03T03:41:32.546Z,628.00
2024-04-03T03:42:32.535Z,630.00
2024-04-03T03:43:32.559Z,628.00
2024-04-03T03:44:32.576Z,631.00
2024-04-03T03:45:32.568Z,633.00
2024-04-03T03:46:32.564Z,633.00
2024-04-03T03:47:32.588Z,630.00
2024-04-03T03:48:32.572Z,631.00
2024-04-03T03:49:32.562Z,630.00
2024-04-03T03:50:32.574Z,631.00
2024-04-03T03:51:32.598Z,626.00
2024-04-03T03:52:32.592Z,632.00
2024-04-03T03:53:32.603Z,627.00
2024-04-03T03:54:32.607Z,631.00
2024-04-03T03:55:32.629Z,631.00
2024-04-03T03:56:39.502Z,631.00
2024-04-03T03:57:33.625Z,631.00
2024-04-03T03:58:32.621Z,630.00
2024-04-03T03:59:32.611Z,630.00
2024-04-03T04:00:32.622Z,632.00
2024-04-03T04:01:32.630Z,631.00
2024-04-03T04:02:32.612Z,631.00
2024-04-03T04:03:32.644Z,629.00
2024-04-03T04:04:32.622Z,628.00
2024-04-03T04:05:32.638Z,629.00
2024-04-03T04:06:32.627Z,628.00
2024-04-03T04:07:32.627Z,625.00
2024-04-03T04:08:32.637Z,622.00
2024-04-03T04:09:32.639Z,622.00
2024-04-03T04:10:32.636Z,628.00
2024-04-03T04:11:32.628Z,626.00
2024-04-03T04:12:32.623Z,621.00
2024-04-03T04:13:32.621Z,623.00
2024-04-03T04:14:32.630Z,628.00
2024-04-03T04:15:32.640Z,625.00
2024-04-03T04:16:32.639Z,623.00
2024-04-03T04:17:32.664Z,627.00
2024-04-03T04:18:32.637Z,621.00
2024-04-03T04:19:32.664Z,623.00
2024-04-03T04:20:32.624Z,623.00
2024-04-03T04:21:33.435Z,621.00
2024-04-03T04:22:32.662Z,622.00
2024-04-03T04:23:32.678Z,625.00
2024-04-03T04:24:32.635Z,619.00
2024-04-03T04:25:32.672Z,624.00
2024-04-03T04:26:32.645Z,620.00
2024-04-03T04:27:32.657Z,617.00
2024-04-03T04:28:33.814Z,623.00
2024-04-03T04:29:32.651Z,621.00
2024-04-03T04:30:32.645Z,617.00
2024-04-03T04:31:32.669Z,619.00
2024-04-03T04:32:32.657Z,620.00
2024-04-03T04:33:32.696Z,617.00
2024-04-03T04:34:32.673Z,617.00
2024-04-03T04:35:32.657Z,620.00
2024-04-03T04:36:32.678Z,620.00
2024-04-03T04:37:32.666Z,619.00
2024-04-03T04:38:32.891Z,622.00
2024-04-03T04:39:32.670Z,620.00
2024-04-03T04:40:32.691Z,620.00
2024-04-03T04:41:32.693Z,624.00
2024-04-03T04:42:40.024Z,600.00
2024-04-03T04:43:40.010Z,600.00
2024-04-03T04:44:40.020Z,600.00
2024-04-03T04:45:40.030Z,600.00
2024-04-03T04:46:40.003Z,600.00
2024-04-03T04:47:39.999Z,600.00
2024-04-03T04:48:40.018Z,607.00
2024-04-03T04:49:40.019Z,605.00
2024-04-03T04:50:40.016Z,607.00
2024-04-03T04:51:40.009Z,606.00
2024-04-03T04:52:40.009Z,603.00
2024-04-03T04:53:40.017Z,606.00
2024-04-03T04:54:40.024Z,605.00
2024-04-03T04:55:40.025Z,600.00
2024-04-03T04:56:40.016Z,603.00
2024-04-03T04:57:40.064Z,605.00
2024-04-03T04:58:40.078Z,604.00
2024-04-03T04:59:40.027Z,605.00
2024-04-03T05:00:40.045Z,600.00
2024-04-03T05:01:40.046Z,603.00
2024-04-03T05:02:40.048Z,607.00
2024-04-03T05:03:40.062Z,601.00
2024-04-03T05:04:40.042Z,604.00
2024-04-03T05:05:40.060Z,608.00
2024-04-03T05:06:40.035Z,608.00
2024-04-03T05:07:40.046Z,603.00
2024-04-03T05:08:40.053Z,607.00
2024-04-03T05:09:40.062Z,603.00
2024-04-03T05:10:40.056Z,603.00
2024-04-03T05:11:40.083Z,601.00
2024-04-03T05:12:40.060Z,603.00
2024-04-03T05:13:40.137Z,606.00
2024-04-03T05:14:40.072Z,602.00
2024-04-03T05:15:40.070Z,601.00
2024-04-03T05:16:40.076Z,605.00
2024-04-03T05:17:40.103Z,606.00
2024-04-03T05:18:40.081Z,600.00
2024-04-03T05:19:40.077Z,600.00
2024-04-03T05:20:40.086Z,604.00
2024-04-03T05:21:40.071Z,601.00
2024-04-03T05:22:40.074Z,606.00
2024-04-03T05:23:40.073Z,605.00
2024-04-03T05:24:40.083Z,606.00
2024-04-03T05:25:40.068Z,606.00
2024-04-03T05:26:40.079Z,604.00
2024-04-03T05:27:40.073Z,607.00
2024-04-03T05:28:40.122Z,600.00
2024-04-03T05:29:40.097Z,601.00
2024-04-03T05:30:40.101Z,604.00
2024-04-03T05:31:40.082Z,606.00
2024-04-03T05:32:40.265Z,604.00
2024-04-03T05:33:40.097Z,602.00
2024-04-03T05:34:40.095Z,596.00
2024-04-03T05:35:40.330Z,600.00
2024-04-03T05:36:40.112Z,599.00
2024-04-03T05:37:40.097Z,599.00
2024-04-03T05:38:40.182Z,600.00
2024-04-03T05:39:40.145Z,598.00
2024-04-03T05:40:41.466Z,600.00
2024-04-03T05:41:40.137Z,590.00
2024-04-03T05:42:40.132Z,583.00
2024-04-03T05:43:40.138Z,579.00
2024-04-03T05:44:40.190Z,573.00
2024-04-03T05:45:40.143Z,566.00
2024-04-03T05:46:40.115Z,598.00
2024-04-03T05:47:40.134Z,601.00
2024-04-03T05:48:40.131Z,602.00
2024-04-03T05:49:40.123Z,601.00
2024-04-03T05:50:40.151Z,606.00
2024-04-03T05:51:40.106Z,607.00
2024-04-03T05:52:40.145Z,620.00
2024-04-03T05:53:40.138Z,623.00
2024-04-03T05:54:40.184Z,623.00
2024-04-03T05:55:40.656Z,615.00
2024-04-03T05:56:40.117Z,617.00
2024-04-03T05:57:40.114Z,615.00
2024-04-03T05:58:40.173Z,615.00
2024-04-03T05:59:40.140Z,617.00
2024-04-03T06:00:40.141Z,616.00
2024-04-03T06:01:40.147Z,615.00
2024-04-03T06:02:40.128Z,617.00
2024-04-03T06:03:40.168Z,618.00
2024-04-03T06:04:40.165Z,618.00
2024-04-03T06:05:40.154Z,619.00
2024-04-03T06:06:40.151Z,618.00
2024-04-03T06:07:40.189Z,620.00
2024-04-03T06:08:40.652Z,618.00
2024-04-03T06:09:41.913Z,620.00
2024-04-03T06:10:40.325Z,627.00
2024-04-03T06:11:40.428Z,628.00
2024-04-03T06:12:40.428Z,632.00
2024-04-03T06:13:40.639Z,636.00
2024-04-03T06:14:40.511Z,637.00
2024-04-03T06:15:40.496Z,637.00
2024-04-03T06:16:40.511Z,639.00
2024-04-03T06:17:40.547Z,634.00
2024-04-03T06:18:40.602Z,637.00
2024-04-03T06:19:40.607Z,637.00
2024-04-03T06:20:40.645Z,637.00
2024-04-03T06:21:40.672Z,637.00
2024-04-03T06:22:40.698Z,633.00
2024-04-03T06:23:40.745Z,631.00
2024-04-03T06:24:40.773Z,629.00
2024-04-03T06:25:40.928Z,631.00
2024-04-03T06:26:40.826Z,632.00
2024-04-03T06:27:40.861Z,630.00
2024-04-03T06:28:41.140Z,625.00
2024-04-03T06:29:41.643Z,621.00
2024-04-03T06:30:40.967Z,612.00
2024-04-03T06:31:40.958Z,605.00
2024-04-03T06:32:41.036Z,602.00
2024-04-03T06:33:41.149Z,602.00
2024-04-03T06:34:41.044Z,600.00
2024-04-03T06:35:41.073Z,603.00
2024-04-03T06:36:41.129Z,601.00
2024-04-03T06:37:41.047Z,602.00
2024-04-03T06:38:41.089Z,600.00
2024-04-03T06:39:41.078Z,602.00
2024-04-03T06:40:41.072Z,600.00
2024-04-03T06:41:41.082Z,601.00
2024-04-03T06:42:41.071Z,600.00
2024-04-03T06:43:41.104Z,601.00
2024-04-03T06:44:41.110Z,605.00
2024-04-03T06:45:41.155Z,606.00
2024-04-03T06:46:41.136Z,601.00
2024-04-03T06:47:41.105Z,606.00
2024-04-03T06:48:41.162Z,599.00
2024-04-03T06:49:41.160Z,602.00
2024-04-03T06:50:41.187Z,604.00
2024-04-03T06:51:41.184Z,605.00
2024-04-03T06:52:41.193Z,600.00
2024-04-03T06:53:41.667Z,605.00
2024-04-03T06:54:41.210Z,605.00
2024-04-03T06:55:41.300Z,610.00
2024-04-03T06:56:41.251Z,610.00
2024-04-03T06:57:41.291Z,610.00
2024-04-03T06:58:41.669Z,613.00
2024-04-03T06:59:41.332Z,616.00
2024-04-03T07:00:41.392Z,620.00
2024-04-03T07:01:41.385Z,626.00
2024-04-03T07:02:41.412Z,628.00
2024-04-03T07:03:41.453Z,629.00
2024-04-03T07:04:41.485Z,634.00
2024-04-03T07:05:41.441Z,635.00
2024-04-03T07:06:41.495Z,637.00
2024-04-03T07:07:41.485Z,640.00
2024-04-03T07:08:41.497Z,641.00
2024-04-03T07:09:41.608Z,646.00
2024-04-03T07:10:41.551Z,646.00
2024-04-03T07:11:41.593Z,647.00
2024-04-03T07:12:41.633Z,648.00
2024-04-03T07:13:41.625Z,652.00
2024-04-03T07:14:41.649Z,654.00
2024-04-03T07:15:41.742Z,657.00
2024-04-03T07:16:41.692Z,658.00
2024-04-03T07:17:41.692Z,663.00
2024-04-03T07:18:41.746Z,665.00
2024-04-03T07:19:42.702Z,667.00
2024-04-03T07:20:41.891Z,667.00
2024-04-03T07:21:41.802Z,681.00
2024-04-03T07:22:41.832Z,695.00
2024-04-03T07:23:41.841Z,694.00
2024-04-03T07:24:41.922Z,697.00
2024-04-03T07:25:41.904Z,711.00
2024-04-03T07:26:41.945Z,721.00
2024-04-03T07:27:41.966Z,735.00
2024-04-03T07:28:42.247Z,745.00
2024-04-03T07:29:42.037Z,756.00
2024-04-03T07:30:42.696Z,749.00
2024-04-03T07:31:42.060Z,768.00
2024-04-03T07:32:42.224Z,776.00
2024-04-03T07:33:42.213Z,784.00
2024-04-03T07:34:42.173Z,797.00
2024-04-03T07:35:42.193Z,794.00
2024-04-03T07:36:42.171Z,806.00
2024-04-03T07:37:42.229Z,814.00
2024-04-03T07:38:42.232Z,797.00
2024-04-03T07:39:42.248Z,818.00
2024-04-03T07:40:42.301Z,809.00
2024-04-03T07:41:42.321Z,805.00
2024-04-03T07:42:42.357Z,793.00
2024-04-03T07:43:42.393Z,790.00
2024-04-03T07:44:42.397Z,780.00
2024-04-03T07:45:42.515Z,759.00
2024-04-03T07:46:42.464Z,760.00
2024-04-03T07:47:42.434Z,756.00
2024-04-03T07:48:42.444Z,740.00
2024-04-03T07:49:42.434Z,736.00
2024-04-03T07:50:42.447Z,721.00
2024-04-03T07:51:42.470Z,705.00
2024-04-03T07:52:42.517Z,702.00
2024-04-03T07:53:42.681Z,690.00
2024-04-03T07:54:42.682Z,692.00
2024-04-03T07:55:42.586Z,666.00
2024-04-03T07:56:42.654Z,666.00
2024-04-03T07:57:42.653Z,665.00
2024-04-03T07:58:42.667Z,655.00
2024-04-03T07:59:42.746Z,652.00
2024-04-03T08:00:42.749Z,647.00
2024-04-03T08:01:42.802Z,643.00
2024-04-03T08:02:43.281Z,642.00
2024-04-03T08:03:42.920Z,637.00
2024-04-03T08:04:42.937Z,631.00
2024-04-03T08:05:42.977Z,626.00
2024-04-03T08:06:43.064Z,618.00
2024-04-03T08:07:43.098Z,618.00
2024-04-03T08:08:43.156Z,614.00
2024-04-03T08:09:43.186Z,608.00
2024-04-03T08:10:43.329Z,602.00
2024-04-03T08:11:43.319Z,602.00
2024-04-03T08:12:43.398Z,602.00
2024-04-03T08:13:43.437Z,604.00
2024-04-03T08:14:43.490Z,601.00
2024-04-03T08:15:43.583Z,600.00
2024-04-03T08:16:43.607Z,602.00
2024-04-03T08:17:43.774Z,600.00
2024-04-03T08:18:43.757Z,602.00
2024-04-03T08:19:43.791Z,602.00
2024-04-03T08:20:43.903Z,602.00
2024-04-03T08:21:43.923Z,602.00
2024-04-03T08:22:43.983Z,599.00
2024-04-03T08:23:44.151Z,605.00
2024-04-03T08:24:44.116Z,604.00
2024-04-03T08:25:44.178Z,604.00
2024-04-03T08:26:44.240Z,603.00
2024-04-03T08:27:44.311Z,601.00
2024-04-03T08:28:45.214Z,605.00
2024-04-03T08:29:44.420Z,604.00
2024-04-03T08:30:44.465Z,607.00
2024-04-03T08:31:44.488Z,614.00
2024-04-03T08:32:44.604Z,614.00
2024-04-03T08:33:45.235Z,616.00
2024-04-03T08:34:44.592Z,615.00
2024-04-03T08:35:44.606Z,622.00
2024-04-03T08:36:44.630Z,629.00
2024-04-03T08:37:51.002Z,630.00
2024-04-03T08:38:45.725Z,630.00
2024-04-03T08:39:44.688Z,630.00
2024-04-03T08:40:44.706Z,668.00
2024-04-03T08:41:44.684Z,994.00
2024-04-03T08:42:44.653Z,1274.00
2024-04-03T08:43:44.660Z,1263.00
2024-04-03T08:44:44.662Z,1234.00
2024-04-03T08:45:44.675Z,1208.00
2024-04-03T08:46:44.649Z,1176.00
2024-04-03T08:47:44.660Z,1169.00
2024-04-03T08:48:44.732Z,1148.00
2024-04-03T08:49:44.655Z,1139.00
2024-04-03T08:50:44.663Z,1130.00
2024-04-03T08:51:44.690Z,1122.00
2024-04-03T08:52:44.725Z,1116.00
2024-04-03T08:53:44.828Z,1123.00
2024-04-03T08:54:44.857Z,1116.00
2024-04-03T08:55:44.936Z,1116.00
2024-04-03T08:56:45.002Z,1127.00
2024-04-03T08:57:45.053Z,1120.00
2024-04-03T08:58:45.117Z,1118.00
2024-04-03T08:59:45.165Z,1129.00
2024-04-03T09:00:46.397Z,1135.00
2024-04-03T09:01:45.291Z,1143.00
2024-04-03T09:02:45.345Z,1137.00
2024-04-03T09:03:46.587Z,1149.00
2024-04-03T09:04:45.411Z,1144.00
2024-04-03T09:05:45.522Z,1141.00
2024-04-03T09:06:45.483Z,1159.00
2024-04-03T09:07:45.873Z,1165.00
2024-04-03T09:08:45.626Z,1165.00
2024-04-03T09:09:45.627Z,1184.00
2024-04-03T09:10:45.768Z,1193.00
2024-04-03T09:11:45.751Z,1218.00
2024-04-03T09:12:45.702Z,1234.00
2024-04-03T09:13:45.762Z,1248.00
2024-04-03T09:14:45.774Z,1282.00
2024-04-03T09:15:45.827Z,1289.00
2024-04-03T09:16:52.591Z,1304.00
2024-04-03T09:17:46.871Z,1305.00
2024-04-03T09:18:45.821Z,1307.00
2024-04-03T09:19:45.818Z,1318.00
2024-04-03T09:20:47.265Z,1330.00
2024-04-03T09:21:45.824Z,1351.00
2024-04-03T09:22:45.869Z,1371.00
2024-04-03T09:23:45.843Z,1375.00
2024-04-03T09:24:45.925Z,1377.00
2024-04-03T09:25:45.814Z,1376.00
2024-04-03T09:26:46.528Z,1392.00
2024-04-03T09:27:45.858Z,1417.00
2024-04-03T09:28:45.891Z,1421.00
2024-04-03T09:29:45.872Z,1420.00
2024-04-03T09:30:45.937Z,1433.00
2024-04-03T09:31:45.851Z,1430.00
2024-04-03T09:32:47.490Z,1440.00
2024-04-03T09:33:45.863Z,1442.00
2024-04-03T09:34:45.860Z,1428.00
2024-04-03T09:35:45.831Z,1405.00
2024-04-03T09:36:46.270Z,1381.00
2024-04-03T09:37:46.000Z,1361.00
2024-04-03T09:38:45.979Z,1344.00
2024-04-03T09:39:46.768Z,1343.00
2024-04-03T09:40:45.965Z,1311.00
2024-04-03T09:41:46.062Z,1296.00
2024-04-03T09:43:09.273Z,1272.00
2024-04-03T09:43:46.053Z,1273.00
2024-04-03T09:44:46.249Z,1275.00
2024-04-03T09:45:46.039Z,1271.00
2024-04-03T09:46:46.039Z,1226.00
2024-04-03T09:47:46.270Z,1197.00
2024-04-03T09:48:46.082Z,1164.00
2024-04-03T09:49:46.246Z,1132.00
2024-04-03T09:50:46.093Z,1096.00
2024-04-03T09:51:46.263Z,1077.00
2024-04-03T09:52:46.129Z,1049.00
2024-04-03T09:53:46.134Z,1021.00
2024-04-03T09:54:47.170Z,1000.00
2024-04-03T09:55:46.158Z,971.00
2024-04-03T09:56:46.257Z,952.00
2024-04-03T09:57:46.155Z,940.00
2024-04-03T09:58:46.251Z,908.00
2024-04-03T09:59:46.190Z,892.00
2024-04-03T10:00:46.202Z,861.00
2024-04-03T10:01:46.247Z,835.00
2024-04-03T10:02:46.404Z,819.00
2024-04-03T10:03:46.303Z,795.00
2024-04-03T10:04:46.335Z,791.00
2024-04-03T10:05:46.362Z,764.00
2024-04-03T10:06:46.427Z,755.00
2024-04-03T10:07:47.359Z,749.00
2024-04-03T10:08:46.499Z,746.00
2024-04-03T10:09:46.558Z,738.00
2024-04-03T10:10:46.703Z,740.00
2024-04-03T10:11:46.656Z,735.00
2024-04-03T10:12:46.726Z,741.00
2024-04-03T10:13:46.776Z,746.00
2024-04-03T10:14:47.270Z,737.00
2024-04-03T10:15:47.776Z,751.00
2024-04-03T10:16:47.015Z,749.00
2024-04-03T10:17:47.021Z,745.00
2024-04-03T10:18:47.078Z,753.00
2024-04-03T10:19:47.269Z,760.00
2024-04-03T10:20:47.187Z,766.00
2024-04-03T10:21:47.207Z,768.00
2024-04-03T10:22:47.266Z,786.00
2024-04-03T10:23:47.318Z,806.00
2024-04-03T10:24:47.764Z,825.00
2024-04-03T10:25:47.430Z,856.00
2024-04-03T10:26:50.454Z,870.00
2024-04-03T10:27:47.530Z,885.00
2024-04-03T10:28:47.488Z,864.00
2024-04-03T10:29:47.776Z,870.00
2024-04-03T10:30:47.505Z,869.00
2024-04-03T10:31:47.479Z,863.00
2024-04-03T10:32:47.512Z,864.00
2024-04-03T10:33:47.476Z,849.00
2024-04-03T10:34:47.785Z,847.00
2024-04-03T10:35:48.275Z,832.00
2024-04-03T10:36:47.475Z,828.00
2024-04-03T10:37:47.504Z,816.00
2024-04-03T10:38:47.536Z,812.00
2024-04-03T10:39:47.770Z,803.00
2024-04-03T10:40:53.544Z,802.00
2024-04-03T10:41:52.163Z,802.00
2024-04-03T10:42:48.547Z,802.00
2024-04-03T10:43:47.558Z,803.00
2024-04-03T10:44:47.530Z,802.00
2024-04-03T10:45:47.501Z,784.00
2024-04-03T10:46:47.592Z,785.00
2024-04-03T10:47:47.542Z,777.00
2024-04-03T10:48:47.586Z,764.00
2024-04-03T10:49:47.799Z,758.00
2024-04-03T10:50:47.527Z,757.00
2024-04-03T10:51:47.519Z,739.00
2024-04-03T10:52:47.539Z,735.00
2024-04-03T10:53:47.542Z,736.00
2024-04-03T10:54:47.529Z,731.00
2024-04-03T10:55:47.558Z,728.00
2024-04-03T10:56:47.539Z,720.00
2024-04-03T10:57:47.574Z,721.00
2024-04-03T10:58:47.546Z,710.00
2024-04-03T10:59:47.578Z,709.00
2024-04-03T11:00:47.538Z,712.00
2024-04-03T11:01:47.549Z,699.00
2024-04-03T11:02:47.701Z,703.00
2024-04-03T11:03:47.550Z,708.00
2024-04-03T11:04:47.695Z,703.00
2024-04-03T11:05:47.568Z,691.00
2024-04-03T11:06:47.564Z,693.00
2024-04-03T11:07:47.591Z,682.00
2024-04-03T11:08:47.562Z,677.00
2024-04-03T11:09:47.603Z,677.00
2024-04-03T11:10:47.609Z,665.00
2024-04-03T11:11:49.382Z,671.00
2024-04-03T11:12:47.633Z,668.00
2024-04-03T11:13:47.568Z,665.00
2024-04-03T11:14:47.575Z,661.00
2024-04-03T11:15:47.639Z,664.00
2024-04-03T11:16:47.597Z,655.00
2024-04-03T11:17:47.613Z,652.00
2024-04-03T11:18:47.564Z,643.00
2024-04-03T11:19:47.578Z,649.00
2024-04-03T11:20:47.620Z,651.00
2024-04-03T11:21:47.637Z,650.00
2024-04-03T11:22:47.600Z,652.00
2024-04-03T11:23:47.568Z,652.00
2024-04-03T11:24:47.815Z,653.00
2024-04-03T11:25:47.622Z,656.00
2024-04-03T11:26:48.202Z,657.00
2024-04-03T11:27:47.729Z,657.00
2024-04-03T11:28:47.765Z,655.00
2024-04-03T11:29:47.841Z,658.00
2024-04-03T11:30:47.878Z,657.00
2024-04-03T11:31:47.920Z,660.00
2024-04-03T11:32:47.974Z,653.00
2024-04-03T11:33:48.035Z,657.00
2024-04-03T11:34:48.305Z,657.00
2024-04-03T11:35:48.115Z,658.00
2024-04-03T11:36:48.177Z,654.00
2024-04-03T11:37:48.231Z,661.00
2024-04-03T11:38:48.288Z,658.00
2024-04-03T11:39:48.809Z,659.00
2024-04-03T11:40:48.440Z,656.00
2024-04-03T11:41:48.482Z,653.00
2024-04-03T11:42:48.511Z,662.00
2024-04-03T11:43:48.571Z,653.00
2024-04-03T11:44:48.646Z,655.00
2024-04-03T11:45:48.692Z,654.00
2024-04-03T11:46:48.757Z,654.00
2024-04-03T11:47:48.822Z,655.00
2024-04-03T11:48:48.895Z,653.00
2024-04-03T11:49:49.303Z,655.00
2024-04-03T11:50:49.016Z,653.00
2024-04-03T11:51:49.099Z,653.00
2024-04-03T11:52:49.164Z,651.00
2024-04-03T11:53:49.246Z,647.00
2024-04-03T11:54:49.303Z,651.00
2024-04-03T11:55:49.384Z,648.00
2024-04-03T11:56:49.420Z,650.00
2024-04-03T11:57:49.513Z,649.00
2024-04-03T11:58:49.566Z,648.00
2024-04-03T11:59:49.819Z,649.00
2024-04-03T12:00:50.307Z,648.00
2024-04-03T12:01:49.794Z,648.00
2024-04-03T12:02:49.838Z,646.00
2024-04-03T12:03:49.908Z,648.00
2024-04-03T12:04:49.973Z,647.00
2024-04-03T12:05:50.347Z,646.00
2024-04-03T12:06:50.108Z,646.00
2024-04-03T12:07:50.184Z,644.00
2024-04-03T12:08:50.255Z,642.00
2024-04-03T12:09:50.327Z,644.00
2024-04-03T12:10:50.430Z,648.00
2024-04-03T12:11:50.458Z,644.00
2024-04-03T12:12:50.505Z,641.00
2024-04-03T12:13:50.567Z,641.00
2024-04-03T12:14:50.836Z,644.00
2024-04-03T12:15:50.710Z,642.00
2024-04-03T12:16:50.801Z,642.00
2024-04-03T12:17:50.860Z,640.00
2024-04-03T12:18:50.921Z,644.00
2024-04-03T12:19:51.325Z,639.00
2024-04-03T12:20:51.032Z,640.00
2024-04-03T12:21:51.119Z,639.00
2024-04-03T12:22:51.275Z,639.00
2024-04-03T12:23:51.272Z,641.00
2024-04-03T12:24:51.304Z,634.00
2024-04-03T12:25:51.361Z,639.00
2024-04-03T12:26:51.464Z,637.00